Terminal Aerodrome Forecast
Issued by NWS

Home | Current Version | Previous Version | Text Only | Print | Product List | Glossary On
Versions: 1 2 3 4 5 6 7 8 9 10 11 12 13 14 15 16 17 18
000
FTUS41 KBTV 130229 AAB
TAFMSS
TAF AMD
KMSS 130229Z 1302/1324 29005KT 3SM -SN BR BKN015 OVC035
     FM130500 29009G15KT 2SM -SHSN BR OVC015
     FM131200 29015G23KT 3SM -SHSN BR OVC020
     FM131500 28016G26KT 3SM -SHSN BR OVC015
     FM131900 27018G30KT 5SM BLSN BR VCSH OVC015=

USA.gov is the U.S. government's official web portal to all federal, state and local government web resources and services.